Time;durP1;ratioP1;P1;durP2;ratioP2;P2;SDS_P1;SDS_P2;PMS_P1;PMS_P2;Temp;Humidity;BMP_temperature;BMP_pressure;BME280_temperature;BME280_humidity;BME280_pressure;Samples;Min_cycle;Max_cycle;Signal;HPM_P1;HPM_P2
2022/02/12 00:01:03;;;;;;;24.20;17.27;;;1.80;1.00;2.00;102263.00;;;;5103806;28;20469;-82
2022/02/12 00:03:33;;;;;;;33.20;18.70;;;1.80;1.00;2.30;102284.00;;;;5119656;28;20453;-82
2022/02/12 00:06:01;;;;;;;28.77;18.30;;;1.80;1.00;2.30;102255.00;;;;5122428;28;20509;-82
2022/02/12 00:08:29;;;;;;;32.30;19.57;;;1.80;1.00;2.10;102265.00;;;;5106972;28;20450;-83
2022/02/12 00:10:58;;;;;;;29.70;19.47;;;1.70;1.00;2.20;102267.00;;;;5096406;28;20470;-81
2022/02/12 00:13:27;;;;;;;33.67;20.47;;;1.70;1.00;2.10;102267.00;;;;5107860;28;20453;-83
2022/02/12 00:15:57;;;;;;;32.13;19.37;;;1.70;1.00;2.20;102279.00;;;;5112283;28;20534;-81
2022/02/12 00:18:25;;;;;;;30.00;20.50;;;1.60;1.00;2.40;102263.00;;;;5105157;28;20456;-82
2022/02/12 00:20:54;;;;;;;29.73;20.97;;;1.70;1.00;2.20;66710.00;;;;5103260;28;20611;-82
2022/02/12 00:23:22;;;;;;;34.23;20.50;;;2.10;1.00;1.70;66658.00;;;;5102596;28;20557;-83
2022/02/12 00:25:51;;;;;;;22.00;15.70;;;1.60;1.00;2.10;102270.00;;;;5084898;28;20590;-83
2022/02/12 00:28:21;;;;;;;24.80;17.07;;;1.80;1.00;2.10;102274.00;;;;5087060;28;20453;-82
2022/02/12 00:30:51;;;;;;;22.97;14.20;;;1.60;1.00;2.20;102226.00;;;;5080246;28;20462;-82
2022/02/12 00:33:19;;;;;;;25.67;14.97;;;1.70;1.00;2.00;102263.00;;;;5088054;28;20793;-81
2022/02/12 00:35:48;;;;;;;22.13;14.50;;;1.90;1.00;2.00;102244.00;;;;5104072;28;20475;-82
2022/02/12 00:38:16;;;;;;;19.93;13.30;;;1.60;1.00;1.90;102268.00;;;;5085100;28;20453;-83
2022/02/12 00:40:44;;;;;;;23.77;14.93;;;1.60;1.00;1.90;102273.00;;;;5083841;28;20477;-81
2022/02/12 00:43:13;;;;;;;25.13;15.53;;;1.50;1.00;1.80;102226.00;;;;5101631;28;20454;-83
2022/02/12 00:45:41;;;;;;;23.57;15.63;;;1.50;1.00;217.30;157394.00;;;;5096659;28;20574;-85
2022/02/12 00:48:11;;;;;;;25.00;15.63;;;1.40;1.00;1.80;102229.00;;;;5097397;28;20904;-85
2022/02/12 00:50:40;;;;;;;25.43;15.47;;;1.40;1.00;1.80;66659.00;;;;5099813;28;20498;-82
2022/02/12 00:53:08;;;;;;;23.10;14.73;;;1.40;1.00;1.80;102249.00;;;;5101482;28;20998;-85
2022/02/12 00:55:36;;;;;;;20.63;13.47;;;1.40;1.00;1.80;102171.00;;;;5088177;28;20484;-83
2022/02/12 00:58:05;;;;;;;24.10;15.53;;;1.40;1.00;1.80;102212.00;;;;5101272;28;21037;-83
2022/02/12 01:00:34;;;;;;;28.17;15.97;;;1.40;1.00;1.80;102199.00;;;;5091605;28;20461;-84
2022/02/12 01:03:03;;;;;;;21.07;14.73;;;1.30;1.00;2.00;102201.00;;;;5107569;28;20441;-81
2022/02/12 01:05:33;;;;;;;25.73;15.63;;;1.40;1.00;1.80;102230.00;;;;5111585;28;20553;-83
2022/02/12 01:08:03;;;;;;;28.53;16.40;;;1.30;1.00;1.60;102040.00;;;;5118005;28;20454;-82
2022/02/12 01:10:32;;;;;;;30.00;16.50;;;1.20;1.00;1.60;101964.00;;;;5112671;28;20467;-83
2022/02/12 01:13:01;;;;;;;31.90;17.70;;;1.30;1.00;1.50;101896.00;;;;5121259;28;20529;-81
2022/02/12 01:15:31;;;;;;;27.60;16.70;;;1.10;1.00;1.40;102011.00;;;;5103188;28;20534;-81
2022/02/12 01:18:00;;;;;;;33.20;17.60;;;1.10;1.00;1.50;102066.00;;;;5090507;28;20973;-83
2022/02/12 01:20:28;;;;;;;23.07;15.57;;;1.10;1.00;1.50;101982.00;;;;5091713;28;21174;-81
2022/02/12 01:22:58;;;;;;;24.40;14.20;;;1.00;1.00;1.80;102225.00;;;;5105341;28;20446;-82
2022/02/12 01:25:27;;;;;;;24.60;14.43;;;1.20;1.00;1.80;102243.00;;;;5107371;28;20501;-83
2022/02/12 01:27:55;;;;;;;23.80;13.00;;;1.20;1.00;1.70;102232.00;;;;5107779;28;20820;-83
2022/02/12 01:30:26;;;;;;;24.67;14.70;;;1.20;1.00;1.60;102243.00;;;;5111348;28;20474;-82
2022/02/12 01:32:55;;;;;;;32.53;16.93;;;1.20;1.00;1.50;102221.00;;;;5093740;28;20458;-81
2022/02/12 01:35:24;;;;;;;27.53;15.07;;;1.10;1.00;1.50;102214.00;;;;5102812;28;20449;-83
2022/02/12 01:37:59;;;;;;;21.57;13.83;;;1.10;1.00;1.50;102223.00;;;;5123025;28;20459;-82
2022/02/12 01:40:28;;;;;;;27.90;14.60;;;1.20;1.00;1.40;102228.00;;;;5100387;28;20488;-81
2022/02/12 01:43:01;;;;;;;19.27;13.43;;;1.00;1.00;1.40;102240.00;;;;5128562;28;20448;-80
2022/02/12 01:45:30;;;;;;;27.67;13.70;;;1.00;1.00;1.60;102216.00;;;;5124549;28;20466;-79
2022/02/12 01:47:58;;;;;;;21.97;11.03;;;1.00;1.00;1.50;102213.00;;;;5113383;28;20460;-77
2022/02/12 01:50:27;;;;;;;23.90;12.60;;;1.10;1.00;1.30;102214.00;;;;5111635;28;20471;-79
2022/02/12 01:52:56;;;;;;;20.93;13.77;;;1.00;1.00;1.30;102228.00;;;;5115012;28;20520;-80
2022/02/12 01:55:25;;;;;;;23.60;14.03;;;0.90;1.00;1.50;102204.00;;;;5104505;28;20552;-82
2022/02/12 01:57:55;;;;;;;18.83;11.90;;;1.00;1.00;1.70;102182.00;;;;5121504;28;20460;-83
2022/02/12 02:00:23;;;;;;;23.43;14.63;;;1.10;1.00;1.50;102214.00;;;;5127372;28;20457;-82
2022/02/12 02:02:55;;;;;;;25.83;14.83;;;1.00;1.00;1.40;102219.00;;;;5125763;28;20441;-83
2022/02/12 02:05:24;;;;;;;26.23;13.43;;;1.00;1.00;1.40;102196.00;;;;5123563;28;20453;-83
2022/02/12 02:07:54;;;;;;;24.47;13.67;;;1.00;1.00;1.20;102196.00;;;;5121613;28;20481;-82
2022/02/12 02:10:24;;;;;;;28.47;14.00;;;0.90;1.00;1.20;102202.00;;;;5103112;28;20458;-83
2022/02/12 02:12:53;;;;;;;23.70;11.97;;;0.80;1.00;1.10;102189.00;;;;5110823;28;20515;-81
2022/02/12 02:15:21;;;;;;;25.10;13.37;;;0.80;1.00;1.10;102172.00;;;;5108974;28;20444;-82
2022/02/12 02:17:50;;;;;;;19.60;12.23;;;0.70;1.00;1.10;102215.00;;;;5108380;28;20467;-82
2022/02/12 02:20:18;;;;;;;21.40;13.40;;;0.70;1.00;1.10;102194.00;;;;5107234;28;20470;-82
2022/02/12 02:22:53;;;;;;;20.87;12.00;;;0.70;1.00;1.10;102219.00;;;;5097931;28;20465;-82
2022/02/12 02:25:22;;;;;;;24.37;12.70;;;0.70;1.00;1.00;102217.00;;;;5111374;28;20445;-82
2022/02/12 02:27:51;;;;;;;20.67;13.33;;;0.70;1.00;1.00;102218.00;;;;5122585;28;20430;-83
2022/02/12 02:30:22;;;;;;;24.50;12.07;;;0.60;1.00;217.30;157103.00;;;;5125382;28;20556;-82
2022/02/12 02:32:50;;;;;;;17.93;13.00;;;0.60;1.00;1.00;102226.00;;;;5124509;28;20460;-82
2022/02/12 02:35:19;;;;;;;20.37;12.03;;;0.80;1.00;1.00;102210.00;;;;5124059;28;20464;-82
2022/02/12 02:37:48;;;;;;;24.10;12.53;;;0.50;1.00;1.00;102237.00;;;;5101180;28;20437;-83
2022/02/12 02:40:20;;;;;;;19.43;11.40;;;0.60;1.00;0.90;102253.00;;;;5107030;28;20558;-81
2022/02/12 02:42:51;;;;;;;17.17;11.63;;;0.50;1.00;0.90;102212.00;;;;5100145;28;20505;-82
2022/02/12 02:45:20;;;;;;;22.47;11.80;;;0.50;1.00;0.80;102236.00;;;;5119518;28;20449;-82
2022/02/12 02:47:50;;;;;;;27.53;12.00;;;0.50;1.00;0.90;102225.00;;;;5117010;28;20550;-83
2022/02/12 02:56:08;;;;;;;22.90;13.00;;;0.50;1.00;0.80;102175.00;;;;5113180;28;20485;-81
2022/02/12 02:58:40;;;;;;;19.70;11.70;;;0.70;1.00;0.90;102214.00;;;;5105409;28;20456;-83
2022/02/12 03:01:11;;;;;;;23.13;11.87;;;0.50;1.00;0.90;102160.00;;;;5117084;28;20501;-83
2022/02/12 03:03:42;;;;;;;20.00;11.60;;;0.50;1.00;0.90;102214.00;;;;5114960;28;21193;-83
2022/02/12 03:06:13;;;;;;;28.53;17.70;;;0.50;1.00;0.70;102205.00;;;;5094431;28;20490;-80
2022/02/12 03:08:42;;;;;;;31.90;16.47;;;0.50;1.00;0.90;102214.00;;;;5097996;28;20448;-81
2022/02/12 03:11:14;;;;;;;22.43;13.30;;;0.50;1.00;0.80;102198.00;;;;5107364;28;20484;-83
2022/02/12 03:13:44;;;;;;;19.07;11.70;;;0.40;1.00;0.80;102225.00;;;;5091558;28;20492;-82
2022/02/12 03:16:14;;;;;;;25.10;11.10;;;0.70;1.00;0.80;66416.00;;;;5100558;28;20449;-81
2022/02/12 03:18:44;;;;;;;19.27;11.70;;;0.40;1.00;0.70;102196.00;;;;5092728;28;20472;-81
2022/02/12 03:21:13;;;;;;;30.10;12.90;;;0.40;1.00;0.50;102176.00;;;;5083977;28;21174;-81
2022/02/12 03:23:43;;;;;;;20.00;12.60;;;0.40;1.00;217.30;156974.00;;;;5085133;28;20806;-81
2022/02/12 03:26:14;;;;;;;25.80;13.20;;;0.30;1.00;0.70;66392.00;;;;5103661;28;20450;-81
2022/02/12 03:28:43;;;;;;;24.90;13.23;;;0.30;1.00;0.80;102204.00;;;;5090388;28;20874;-80
2022/02/12 03:31:14;;;;;;;21.37;12.90;;;0.40;1.00;0.80;102169.00;;;;5107171;28;20461;-82
2022/02/12 03:33:45;;;;;;;23.00;12.30;;;0.40;1.00;0.70;102187.00;;;;5116114;28;20442;-81
2022/02/12 03:36:14;;;;;;;18.63;10.97;;;0.40;1.00;0.60;102148.00;;;;5105669;28;20457;-82
2022/02/12 03:38:47;;;;;;;20.17;12.83;;;0.30;1.00;0.70;102109.00;;;;5083426;28;20449;-81
2022/02/12 03:41:17;;;;;;;20.10;11.90;;;0.30;1.00;0.60;102178.00;;;;5102266;28;20457;-81
2022/02/12 03:43:46;;;;;;;18.00;11.70;;;0.20;1.00;0.50;102166.00;;;;5107083;28;20461;-81
2022/02/12 03:46:16;;;;;;;18.53;12.00;;;0.50;1.00;0.60;102100.00;;;;5108764;28;20481;-81
2022/02/12 03:48:45;;;;;;;16.90;11.93;;;0.10;1.00;0.60;102127.00;;;;5108205;28;20474;-81
2022/02/12 03:51:16;;;;;;;27.03;12.27;;;0.20;1.00;0.50;66320.00;;;;5124055;28;20450;-83
2022/02/12 03:53:45;;;;;;;22.43;12.90;;;0.10;1.00;0.40;66347.00;;;;5101531;28;20457;-81
2022/02/12 03:56:17;;;;;;;23.07;11.30;;;0.00;1.00;0.50;66349.00;;;;5114102;28;20465;-80
2022/02/12 03:58:48;;;;;;;20.70;11.73;;;0.00;1.00;0.50;102146.00;;;;5101108;28;20445;-83
2022/02/12 04:01:16;;;;;;;21.50;11.80;;;0.10;1.00;0.40;102098.00;;;;5101920;28;20453;-80
2022/02/12 04:03:45;;;;;;;20.57;11.80;;;0.10;1.00;0.40;102119.00;;;;5082765;28;20450;-81
2022/02/12 04:06:13;;;;;;;21.20;12.00;;;0.00;1.00;0.40;102107.00;;;;5100491;28;20453;-80
2022/02/12 04:08:42;;;;;;;24.00;12.00;;;0.00;1.00;0.40;102125.00;;;;5096926;28;20465;-80
2022/02/12 04:11:10;;;;;;;27.47;11.93;;;0.00;1.00;0.30;102127.00;;;;5085450;28;21665;-82
2022/02/12 04:13:40;;;;;;;18.60;11.20;;;-0.10;1.00;0.40;66331.00;;;;5081317;28;20482;-81
2022/02/12 04:16:08;;;;;;;20.67;11.17;;;-0.10;1.00;0.30;102104.00;;;;5098895;28;20460;-81
2022/02/12 04:18:37;;;;;;;19.60;11.87;;;-0.10;1.00;0.40;102108.00;;;;5098021;28;20540;-82
2022/02/12 04:21:06;;;;;;;22.87;12.07;;;-0.10;1.00;0.40;102110.00;;;;5101811;28;20581;-81
2022/02/12 04:23:34;;;;;;;25.10;12.70;;;-0.10;1.00;0.40;102135.00;;;;5098083;28;20459;-81
2022/02/12 04:26:05;;;;;;;19.20;12.07;;;0.00;1.00;0.40;102128.00;;;;5081478;28;20446;-81
2022/02/12 04:28:36;;;;;;;17.93;12.07;;;0.00;1.00;0.30;102128.00;;;;5080149;28;20500;-80
2022/02/12 04:31:07;;;;;;;17.40;12.20;;;0.00;1.00;0.30;102138.00;;;;5099100;28;20476;-80
2022/02/12 04:33:36;;;;;;;21.23;12.33;;;-0.10;1.00;0.30;102137.00;;;;5081616;28;20450;-82
2022/02/12 04:36:05;;;;;;;18.57;12.00;;;-0.10;1.00;0.40;102131.00;;;;5083662;28;20445;-80
2022/02/12 04:38:34;;;;;;;20.57;11.40;;;-0.10;1.00;0.30;102115.00;;;;5098856;28;20548;-81
2022/02/12 04:41:03;;;;;;;19.93;12.30;;;-0.10;1.00;0.40;102163.00;;;;5097870;28;20470;-80
2022/02/12 04:43:51;;;;;;;26.17;13.63;;;0.00;1.00;0.50;66371.00;;;;5099507;28;20449;-82
2022/02/12 04:46:21;;;;;;;24.83;13.47;;;0.10;1.00;0.60;102114.00;;;;5097160;28;20482;-81
2022/02/12 04:48:50;;;;;;;23.80;13.17;;;0.10;1.00;0.60;102137.00;;;;5098960;28;20497;-80
2022/02/12 04:51:19;;;;;;;27.97;13.97;;;0.10;1.00;0.50;66392.00;;;;5089323;28;20544;-80
2022/02/12 04:53:48;;;;;;;18.43;11.60;;;0.20;1.00;0.50;66373.00;;;;5100327;28;21568;-81
2022/02/12 04:56:17;;;;;;;21.53;12.53;;;0.20;1.00;0.50;66361.00;;;;5099956;28;20455;-80
2022/02/12 04:59:01;;;;;;;20.87;12.87;;;0.40;1.00;0.40;102141.00;;;;5079166;27;20572;-81
2022/02/12 05:01:31;;;;;;;23.97;12.13;;;0.10;1.00;0.40;102118.00;;;;5056112;28;20451;-81
2022/02/12 05:04:00;;;;;;;22.70;12.17;;;0.00;1.00;0.40;102121.00;;;;5059015;28;20605;-81
2022/02/12 05:06:31;;;;;;;19.43;11.50;;;0.00;1.00;0.40;102129.00;;;;5090804;28;20450;-82
2022/02/12 05:09:00;;;;;;;23.63;12.77;;;0.00;1.00;0.40;102130.00;;;;5089193;28;21012;-81
2022/02/12 05:11:28;;;;;;;24.23;11.10;;;-0.10;1.00;0.30;102075.00;;;;5059877;28;20459;-81
2022/02/12 05:14:03;;;;;;;21.67;11.47;;;-0.10;1.00;0.30;102131.00;;;;5074470;28;20458;-81
2022/02/12 05:16:32;;;;;;;23.37;12.33;;;-0.10;1.00;0.20;102120.00;;;;5060690;28;20952;-80
2022/02/12 05:19:01;;;;;;;21.80;11.40;;;0.00;1.00;0.20;102105.00;;;;5058220;28;20472;-80
2022/02/12 05:21:30;;;;;;;21.83;13.00;;;-0.20;1.00;0.20;102118.00;;;;5055569;28;20456;-81
2022/02/12 05:23:58;;;;;;;28.90;12.80;;;-0.20;1.00;0.10;102106.00;;;;5065442;28;20485;-80
2022/02/12 05:26:27;;;;;;;29.57;13.60;;;-0.30;1.00;0.20;102095.00;;;;5062503;28;20959;-81
2022/02/12 05:28:56;;;;;;;26.73;12.43;;;-0.30;1.00;0.10;102117.00;;;;5070416;28;21047;-82
2022/02/12 05:31:25;;;;;;;19.63;13.17;;;-0.30;1.00;0.20;102106.00;;;;5069178;28;20531;-80
2022/02/12 05:33:54;;;;;;;26.30;13.67;;;-0.30;1.00;0.20;102028.00;;;;5063006;28;20519;-81
2022/02/12 05:36:22;;;;;;;23.50;13.60;;;-0.30;1.00;0.20;102068.00;;;;5066240;28;20443;-81
2022/02/12 05:38:51;;;;;;;19.30;11.70;;;-0.30;1.00;0.00;102095.00;;;;5065241;28;20483;-81
2022/02/12 05:41:19;;;;;;;20.33;13.90;;;-0.20;1.00;-0.20;102100.00;;;;5061407;28;20462;-83
2022/02/12 05:43:48;;;;;;;21.30;12.70;;;-0.30;1.00;0.10;102028.00;;;;5067476;28;20589;-81
2022/02/12 05:46:16;;;;;;;19.67;11.60;;;-0.30;1.00;0.20;102102.00;;;;5055740;28;20970;-80
2022/02/12 05:48:48;;;;;;;19.53;11.40;;;-0.30;1.00;0.20;102081.00;;;;5071460;28;21060;-80
2022/02/12 05:51:20;;;;;;;27.23;12.73;;;0.00;1.00;0.20;102095.00;;;;5059276;28;20458;-83
2022/02/12 05:53:49;;;;;;;22.53;12.20;;;-0.20;1.00;0.20;102108.00;;;;5069301;28;20452;-82
2022/02/12 05:56:18;;;;;;;26.43;13.70;;;-0.20;1.00;0.10;102097.00;;;;5080055;28;20463;-82
2022/02/12 05:58:52;;;;;;;27.70;13.27;;;-0.30;1.00;0.10;102099.00;;;;5070202;28;20470;-82
2022/02/12 06:01:21;;;;;;;21.50;12.57;;;-0.30;1.00;0.10;102081.00;;;;5061053;28;20451;-80
2022/02/12 06:03:52;;;;;;;20.10;12.43;;;-0.30;1.00;0.10;102099.00;;;;5076873;28;20450;-81
2022/02/12 06:06:21;;;;;;;21.70;13.50;;;-0.30;1.00;0.10;102089.00;;;;5063426;28;20563;-81
2022/02/12 06:08:49;;;;;;;26.70;12.47;;;-0.30;1.00;0.10;102094.00;;;;5058897;28;20475;-81
2022/02/12 06:11:17;;;;;;;21.50;12.47;;;-0.30;1.00;0.10;102094.00;;;;5047506;28;20484;-81
2022/02/12 06:13:49;;;;;;;24.47;12.30;;;-0.30;1.00;0.10;102087.00;;;;5056448;28;20473;-82
2022/02/12 06:16:18;;;;;;;24.07;13.97;;;-0.30;1.00;0.10;102079.00;;;;5039039;28;20465;-80
2022/02/12 06:18:46;;;;;;;26.87;13.13;;;-0.30;1.00;-0.10;102040.00;;;;5040088;28;20993;-81
2022/02/12 06:21:17;;;;;;;22.17;12.37;;;-0.30;1.00;0.10;102000.00;;;;5070002;28;20453;-81
2022/02/12 06:23:45;;;;;;;18.73;12.43;;;-0.30;1.00;0.00;102001.00;;;;5039931;28;20503;-81
2022/02/12 06:26:14;;;;;;;25.17;12.00;;;-0.40;1.00;-0.10;102066.00;;;;5058518;28;20444;-81
2022/02/12 06:28:42;;;;;;;20.13;12.30;;;-0.40;1.00;0.10;102077.00;;;;5039892;28;20453;-81
2022/02/12 06:31:10;;;;;;;21.60;12.43;;;0.00;1.00;0.10;102041.00;;;;5040782;28;20496;-81
2022/02/12 06:33:39;;;;;;;23.60;12.20;;;-0.30;1.00;0.20;102066.00;;;;5041189;28;20455;-82
2022/02/12 06:36:07;;;;;;;26.03;12.30;;;-0.20;1.00;0.20;102058.00;;;;5040084;28;20457;-82
2022/02/12 06:38:37;;;;;;;26.07;12.97;;;-0.20;1.00;0.20;102061.00;;;;5037370;28;20476;-82
2022/02/12 06:41:05;;;;;;;22.47;12.40;;;-0.20;1.00;0.20;102050.00;;;;5038562;28;20498;-82
2022/02/12 06:43:34;;;;;;;25.27;13.07;;;-0.20;1.00;0.20;102056.00;;;;5043082;28;20448;-79
2022/02/12 06:46:03;;;;;;;22.90;12.83;;;-0.20;1.00;0.30;102067.00;;;;5076214;28;20472;-80
2022/02/12 06:48:33;;;;;;;19.20;12.93;;;-0.20;1.00;0.20;102035.00;;;;5041074;28;20457;-81
2022/02/12 06:51:04;;;;;;;24.10;12.70;;;0.00;1.00;0.30;102054.00;;;;5046879;28;20477;-82
2022/02/12 06:53:33;;;;;;;22.23;13.33;;;-0.20;1.00;0.30;102043.00;;;;5046760;28;20523;-81
2022/02/12 06:56:04;;;;;;;29.03;15.27;;;-0.20;1.00;0.30;102025.00;;;;5082859;28;20455;-84
2022/02/12 06:58:32;;;;;;;24.70;13.77;;;-0.10;1.00;0.30;102060.00;;;;5094934;28;20475;-82
2022/02/12 07:01:01;;;;;;;25.53;13.17;;;0.00;1.00;0.30;102023.00;;;;5064140;28;20491;-83
2022/02/12 07:03:29;;;;;;;22.10;13.63;;;-0.10;1.00;0.30;102011.00;;;;5103031;28;20436;-82
2022/02/12 07:05:58;;;;;;;20.60;13.50;;;-0.10;1.00;0.30;102045.00;;;;5061795;28;20533;-82
2022/02/12 07:08:26;;;;;;;20.80;13.43;;;0.00;1.00;0.40;102038.00;;;;5069429;28;20464;-80
2022/02/12 07:10:54;;;;;;;24.37;14.00;;;0.00;1.00;0.50;102053.00;;;;5038919;28;20875;-80
2022/02/12 07:13:24;;;;;;;19.23;12.63;;;0.20;1.00;0.50;101996.00;;;;5039413;28;20462;-80
2022/02/12 07:15:52;;;;;;;27.90;14.50;;;0.10;1.00;0.60;101995.00;;;;5044009;28;20464;-80
2022/02/12 07:18:21;;;;;;;30.20;24.17;;;0.20;1.00;0.70;102053.00;;;;5042947;28;20468;-81
2022/02/12 07:20:49;;;;;;;21.77;14.37;;;0.20;1.00;0.80;102035.00;;;;5069946;28;20670;-81
2022/02/12 07:23:18;;;;;;;22.80;12.87;;;0.30;1.00;0.90;102028.00;;;;5045095;28;20456;-81
2022/02/12 07:25:46;;;;;;;23.07;13.37;;;0.40;1.00;1.00;102057.00;;;;5042404;28;20453;-82
2022/02/12 07:28:15;;;;;;;26.90;14.27;;;0.50;1.00;0.90;102032.00;;;;5042712;28;20453;-82
2022/02/12 07:30:44;;;;;;;25.33;14.10;;;0.60;1.00;1.20;102048.00;;;;5039206;28;21145;-80
2022/02/12 07:33:13;;;;;;;26.60;15.07;;;0.70;1.00;1.50;102026.00;;;;5039158;28;20492;-80
2022/02/12 07:35:41;;;;;;;25.70;14.90;;;0.80;1.00;1.30;102047.00;;;;5039104;28;20452;-80
2022/02/12 07:38:12;;;;;;;26.00;18.70;;;0.80;1.00;1.30;102050.00;;;;5038996;28;20448;-81
2022/02/12 07:40:40;;;;;;;29.33;15.67;;;0.80;1.00;1.50;102048.00;;;;5070375;28;20476;-80
2022/02/12 07:43:08;;;;;;;19.90;12.83;;;0.90;1.00;1.70;102059.00;;;;5037415;28;20572;-80
2022/02/12 07:45:38;;;;;;;20.63;13.27;;;1.10;1.00;1.80;102020.00;;;;5054978;28;20452;-79
2022/02/12 07:48:08;;;;;;;23.47;13.50;;;1.30;1.00;1.90;102045.00;;;;5067021;28;20476;-80
2022/02/12 07:50:36;;;;;;;27.93;14.20;;;1.40;1.00;2.00;102026.00;;;;5038091;28;20469;-82
2022/02/12 07:53:05;;;;;;;24.80;15.40;;;1.40;1.00;2.00;102019.00;;;;5036600;28;20452;-81
2022/02/12 07:55:34;;;;;;;25.60;12.00;;;1.50;1.00;2.20;102042.00;;;;5020768;28;20444;-80
2022/02/12 07:58:02;;;;;;;22.40;13.37;;;1.60;1.00;2.40;102038.00;;;;5034470;28;20471;-81
2022/02/12 08:00:31;;;;;;;24.43;12.57;;;1.80;1.00;2.40;102042.00;;;;5038237;28;20485;-79
2022/02/12 08:02:59;;;;;;;20.13;13.20;;;1.80;1.00;2.60;102020.00;;;;5040710;28;20926;-82
2022/02/12 08:05:29;;;;;;;26.97;13.13;;;1.90;1.00;217.30;157721.00;;;;5053516;28;20472;-81
2022/02/12 08:07:57;;;;;;;20.77;12.60;;;2.00;1.00;2.60;101993.00;;;;5087152;28;20448;-80
2022/02/12 08:13:13;;;;;;;17.03;11.80;;;2.40;1.00;2.80;101996.00;;;;5044547;28;20457;-82
2022/02/12 08:15:41;;;;;;;23.30;12.23;;;2.30;1.00;3.00;102051.00;;;;5043628;28;20455;-80
2022/02/12 08:18:10;;;;;;;18.90;11.63;;;2.40;1.00;3.00;102041.00;;;;5041382;28;20459;-80
2022/02/12 08:20:39;;;;;;;21.50;11.50;;;2.50;1.00;3.00;102041.00;;;;5048749;28;20497;-81
2022/02/12 08:23:09;;;;;;;23.07;14.93;;;2.50;1.00;3.00;102054.00;;;;5042323;28;21351;-81
2022/02/12 08:25:38;;;;;;;23.30;10.17;;;2.60;1.00;3.00;102036.00;;;;5041305;28;20945;-82
2022/02/12 08:28:07;;;;;;;15.17;10.90;;;2.60;1.00;3.20;102026.00;;;;5046317;28;20492;-81
2022/02/12 08:30:35;;;;;;;13.27;9.17;;;2.70;1.00;3.20;101998.00;;;;5046519;28;20492;-81
2022/02/12 08:33:05;;;;;;;15.93;8.33;;;2.80;1.00;52.70;158080.00;;;;5060208;28;20449;-82
2022/02/12 08:35:55;;;;;;;15.57;8.30;;;2.90;1.00;3.50;102050.00;;;;5058943;28;20453;-82
2022/02/12 08:38:24;;;;;;;12.67;7.20;;;3.00;1.00;3.30;102034.00;;;;5092697;28;20468;-80
2022/02/12 08:40:53;;;;;;;15.87;6.57;;;3.00;1.00;3.50;102052.00;;;;5057652;28;20488;-81
2022/02/12 08:43:21;;;;;;;15.43;6.17;;;3.00;1.00;3.50;102050.00;;;;5049664;28;20495;-82
2022/02/12 08:45:50;;;;;;;12.10;6.17;;;3.10;1.00;3.70;102035.00;;;;5044950;28;20539;-79
2022/02/12 08:48:19;;;;;;;11.30;6.07;;;3.20;1.00;3.80;102010.00;;;;5056324;28;20501;-83
2022/02/12 08:50:50;;;;;;;11.50;6.50;;;3.30;1.00;3.70;102010.00;;;;5064137;28;20527;-81
2022/02/12 08:53:20;;;;;;;13.37;7.00;;;3.30;1.00;4.00;102036.00;;;;5053460;28;20457;-81
2022/02/12 08:55:52;;;;;;;11.77;7.13;;;3.40;1.00;3.90;102031.00;;;;5055769;28;20476;-80
2022/02/12 08:58:22;;;;;;;12.20;6.50;;;3.50;1.00;3.80;101965.00;;;;5044408;28;20508;-80
2022/02/12 09:00:52;;;;;;;12.90;6.10;;;3.60;1.00;3.90;102038.00;;;;5083147;28;20641;-81
2022/02/12 09:03:21;;;;;;;14.40;6.47;;;3.60;1.00;4.10;102056.00;;;;5048980;28;20445;-82
2022/02/12 09:05:49;;;;;;;11.83;6.53;;;3.60;1.00;4.10;102030.00;;;;5047622;28;20856;-82
2022/02/12 09:08:19;;;;;;;10.90;5.87;;;3.60;1.00;4.10;102028.00;;;;5049776;28;20445;-80
2022/02/12 09:10:51;;;;;;;8.97;5.80;;;3.50;1.00;4.30;102027.00;;;;5041478;28;20559;-80
2022/02/12 09:13:19;;;;;;;13.20;5.70;;;3.80;1.00;4.30;102021.00;;;;5041786;28;20503;-80
2022/02/12 09:15:48;;;;;;;12.30;7.73;;;3.90;1.00;4.40;102031.00;;;;5076252;28;20468;-82
2022/02/12 09:18:17;;;;;;;12.50;6.40;;;3.90;1.00;4.30;102024.00;;;;5041403;28;20456;-83
2022/02/12 09:20:46;;;;;;;12.40;6.17;;;4.00;1.00;4.60;102024.00;;;;5042028;28;20519;-81
2022/02/12 09:23:21;;;;;;;9.10;5.70;;;4.10;1.00;4.40;102008.00;;;;5042143;28;20460;-80
2022/02/12 09:25:49;;;;;;;12.70;6.20;;;4.20;1.00;4.60;101966.00;;;;5043173;28;20440;-82
2022/02/12 09:28:19;;;;;;;16.30;6.47;;;4.20;1.00;4.70;102026.00;;;;5042064;28;20449;-81
2022/02/12 09:30:47;;;;;;;13.93;7.27;;;4.20;1.00;4.90;101983.00;;;;5050040;28;20603;-80
2022/02/12 09:33:16;;;;;;;10.93;6.53;;;4.30;1.00;4.90;102011.00;;;;5027112;28;20462;-81
2022/02/12 09:35:53;;;;;;;9.43;5.60;;;4.50;1.00;4.90;102030.00;;;;5040356;28;20466;-82
2022/02/12 09:38:24;;;;;;;8.90;5.43;;;4.60;1.00;4.80;102030.00;;;;5046742;28;20496;-81
2022/02/12 09:40:54;;;;;;;15.13;5.50;;;4.60;1.00;5.00;102026.00;;;;5045074;28;20951;-81
2022/02/12 09:43:26;;;;;;;12.73;5.40;;;4.70;1.00;4.90;101998.00;;;;5043707;28;20490;-80
2022/02/12 09:46:42;;;;;;;11.93;5.10;;;4.60;1.00;5.00;101995.00;;;;5074829;28;20463;-79
2022/02/12 09:49:12;;;;;;;10.17;6.00;;;4.60;1.00;5.20;102002.00;;;;5015166;28;21423;-80
2022/02/12 09:51:42;;;;;;;10.40;5.90;;;4.70;1.00;5.00;101940.00;;;;5037443;28;20452;-79
2022/02/12 09:54:13;;;;;;;11.50;5.60;;;4.80;1.00;5.20;101975.00;;;;5044730;28;20506;-79
2022/02/12 09:56:42;;;;;;;10.80;6.10;;;4.80;1.00;5.10;101969.00;;;;5076413;28;20508;-80
2022/02/12 09:59:11;;;;;;;13.77;5.57;;;4.80;1.00;5.20;101910.00;;;;5048419;28;20550;-81
2022/02/12 10:01:40;;;;;;;9.27;5.30;;;4.90;1.00;5.20;102007.00;;;;5045403;28;20491;-79
2022/02/12 10:04:18;;;;;;;12.37;6.60;;;4.90;1.00;5.40;101958.00;;;;5051071;28;20440;-80
2022/02/12 10:06:47;;;;;;;15.07;6.60;;;4.90;1.00;5.50;101907.00;;;;5044096;28;20468;-79
2022/02/12 10:09:17;;;;;;;11.90;5.90;;;5.10;1.00;5.60;101983.00;;;;5044067;28;20515;-80
2022/02/12 10:11:49;;;;;;;14.40;6.57;;;5.20;1.00;5.50;101996.00;;;;5044417;28;20444;-81
2022/02/12 10:14:20;;;;;;;9.43;5.90;;;5.20;1.00;5.50;101958.00;;;;5045528;28;20476;-80
2022/02/12 10:16:52;;;;;;;12.00;5.90;;;5.20;1.00;5.50;101991.00;;;;5043745;28;20452;-82
2022/02/12 10:19:31;;;;;;;10.20;6.67;;;5.20;1.00;5.60;101896.00;;;;5027156;28;20491;-81
2022/02/12 10:22:10;;;;;;;11.63;6.57;;;5.20;1.00;5.60;101982.00;;;;5062718;28;20974;-81
2022/02/12 10:24:58;;;;;;;14.50;6.53;;;5.20;1.00;5.80;101967.00;;;;5047435;28;20549;-82
2022/02/12 10:27:28;;;;;;;10.47;5.90;;;5.50;1.00;5.90;101959.00;;;;5027820;28;20466;-83
2022/02/12 10:29:58;;;;;;;13.50;6.40;;;5.80;1.00;6.00;101974.00;;;;5047281;28;20558;-83
2022/02/12 10:32:28;;;;;;;8.27;5.83;;;5.70;1.00;6.20;101937.00;;;;5046316;28;20520;-82
2022/02/12 10:34:57;;;;;;;8.77;6.20;;;5.80;1.00;6.50;101948.00;;;;5078333;28;20463;-82
2022/02/12 10:37:26;;;;;;;12.80;6.87;;;6.00;1.00;6.70;101958.00;;;;5050319;28;20448;-81
2022/02/12 10:39:59;;;;;;;9.37;6.10;;;6.60;1.00;6.70;101945.00;;;;5094727;28;20460;-82
2022/02/12 10:42:30;;;;;;;10.80;5.63;;;6.40;1.00;6.80;101947.00;;;;5063439;28;20471;-83
2022/02/12 10:45:07;;;;;;;10.50;4.83;;;6.50;1.00;7.00;101944.00;;;;5078346;28;20464;-82
2022/02/12 10:47:35;;;;;;;8.13;4.90;;;6.60;1.00;7.00;101948.00;;;;5048570;28;20461;-83
2022/02/12 10:50:04;;;;;;;7.30;5.30;;;6.60;1.00;7.00;101947.00;;;;5047816;28;20918;-84
2022/02/12 10:52:44;;;;;;;7.87;4.90;;;6.70;1.00;7.20;101926.00;;;;5049648;28;20457;-83
2022/02/12 10:55:32;;;;;;;11.63;6.03;;;6.90;1.00;7.50;101932.00;;;;5052099;28;20462;-81
2022/02/12 10:58:04;;;;;;;7.07;3.93;;;7.10;1.00;7.60;101899.00;;;;5082278;28;20487;-82
2022/02/12 11:00:35;;;;;;;10.33;4.13;;;7.30;1.00;7.70;101926.00;;;;5051918;28;20488;-82
2022/02/12 11:03:09;;;;;;;7.27;3.67;;;7.50;1.00;7.90;101922.00;;;;5085305;28;20475;-83
2022/02/12 11:05:40;;;;;;;7.10;4.17;;;7.60;1.00;7.90;101922.00;;;;5048101;28;20483;-82
2022/02/12 11:08:10;;;;;;;7.40;3.43;;;7.60;1.00;7.80;101904.00;;;;5055973;28;20558;-82
2022/02/12 11:10:42;;;;;;;10.30;4.03;;;7.50;1.00;7.90;101907.00;;;;5028460;28;20469;-83
2022/02/12 11:13:11;;;;;;;6.20;3.87;;;7.60;1.00;7.90;101862.00;;;;5044431;28;20444;-83
2022/02/12 11:15:39;;;;;;;8.40;4.37;;;7.60;1.00;8.00;101888.00;;;;5047839;28;20467;-82